createdAt,value
2018-05-04T00:00:59.414Z,0
2018-05-04T00:02:07.461Z,0
2018-05-04T00:03:15.533Z,0
2018-05-04T00:04:23.597Z,0
2018-05-04T00:05:31.643Z,0
2018-05-04T00:06:39.698Z,0
2018-05-04T00:07:47.773Z,0
2018-05-04T00:08:55.844Z,0
2018-05-04T00:10:03.890Z,0
2018-05-04T00:11:11.961Z,0
2018-05-04T00:12:20.024Z,0
2018-05-04T00:13:28.084Z,0
2018-05-04T00:14:36.129Z,0
2018-05-04T00:15:44.194Z,0
2018-05-04T00:16:52.249Z,0
2018-05-04T00:18:00.319Z,0
2018-05-04T00:19:08.382Z,0
2018-05-04T00:20:16.451Z,0
2018-05-04T00:21:24.504Z,0
2018-05-04T00:22:32.538Z,0
2018-05-04T00:23:40.624Z,0
2018-05-04T00:24:48.683Z,0
2018-05-04T00:25:56.751Z,0
2018-05-04T00:27:04.833Z,0
2018-05-04T00:28:12.861Z,0
2018-05-04T00:29:20.941Z,0
2018-05-04T00:30:28.998Z,0
2018-05-04T00:31:37.064Z,0
2018-05-04T00:32:45.115Z,0
2018-05-04T00:33:53.180Z,0
2018-05-04T00:35:01.244Z,0
2018-05-04T00:36:09.312Z,0
2018-05-04T00:37:17.368Z,0
2018-05-04T00:38:25.420Z,0
2018-05-04T00:39:33.484Z,0
2018-05-04T00:40:41.552Z,0
2018-05-04T00:41:49.628Z,0
2018-05-04T00:42:57.670Z,0
2018-05-04T00:44:05.722Z,0
2018-05-04T00:45:13.812Z,0
2018-05-04T00:46:21.861Z,0
2018-05-04T00:47:29.909Z,0
2018-05-04T00:48:37.972Z,0
2018-05-04T00:49:46.057Z,0
2018-05-04T00:50:54.104Z,0
2018-05-04T00:52:02.145Z,0
2018-05-04T00:53:10.214Z,0
2018-05-04T00:54:18.293Z,0
2018-05-04T00:55:26.345Z,0
2018-05-04T00:56:34.408Z,0
2018-05-04T00:57:42.444Z,0
2018-05-04T00:58:50.534Z,0
2018-05-04T00:59:58.610Z,0
2018-05-04T01:01:06.659Z,0
2018-05-04T01:02:14.718Z,0
2018-05-04T01:03:22.769Z,0
2018-05-04T01:04:30.838Z,0
2018-05-04T01:05:38.894Z,0
2018-05-04T01:06:46.973Z,0
2018-05-04T01:07:55.023Z,0
2018-05-04T01:09:03.072Z,0
2018-05-04T01:10:11.155Z,0
2018-05-04T01:11:19.208Z,0
2018-05-04T01:12:27.274Z,0
2018-05-04T01:13:35.329Z,0
2018-05-04T01:14:43.393Z,0
2018-05-04T01:15:51.450Z,0
2018-05-04T01:16:59.506Z,0
2018-05-04T01:18:07.573Z,0
2018-05-04T01:19:15.643Z,0
2018-05-04T01:20:23.702Z,0
2018-05-04T01:21:31.757Z,0
2018-05-04T01:22:39.828Z,0
2018-05-04T01:23:47.891Z,0
2018-05-04T01:24:55.941Z,0
2018-05-04T01:26:04.000Z,0
2018-05-04T01:27:12.042Z,0
2018-05-04T01:28:20.138Z,0
2018-05-04T01:29:28.229Z,0
2018-05-04T01:30:36.267Z,0
2018-05-04T01:31:44.314Z,0
2018-05-04T01:32:52.351Z,0
2018-05-04T01:34:00.430Z,0
2018-05-04T01:35:08.501Z,0
2018-05-04T01:36:16.561Z,0
2018-05-04T01:37:24.607Z,0
2018-05-04T01:38:32.652Z,0
2018-05-04T01:39:40.747Z,0
2018-05-04T01:40:48.810Z,0
2018-05-04T01:41:56.872Z,0
2018-05-04T01:43:04.927Z,0
2018-05-04T01:44:12.987Z,0
2018-05-04T01:45:21.031Z,0
2018-05-04T01:46:29.106Z,0
2018-05-04T01:47:37.164Z,0
2018-05-04T01:48:45.234Z,0
2018-05-04T01:49:53.300Z,0
2018-05-04T01:51:01.352Z,0
2018-05-04T01:52:09.422Z,0
2018-05-04T01:53:17.487Z,0
2018-05-04T01:54:25.558Z,0
2018-05-04T01:55:33.601Z,0
2018-05-04T01:56:41.675Z,0
2018-05-04T01:57:49.723Z,0
2018-05-04T01:58:57.791Z,0
2018-05-04T02:00:05.852Z,0
2018-05-04T02:01:13.923Z,0
2018-05-04T02:02:21.965Z,0
2018-05-04T02:03:30.073Z,0
2018-05-04T02:04:38.093Z,0
2018-05-04T02:05:46.166Z,0
2018-05-04T02:06:54.233Z,0
2018-05-04T02:08:02.252Z,0
2018-05-04T02:09:10.365Z,0
2018-05-04T02:10:18.397Z,0
2018-05-04T02:11:26.467Z,0
2018-05-04T02:12:34.515Z,0
2018-05-04T02:13:42.560Z,0
2018-05-04T02:14:50.651Z,0
2018-05-04T02:15:58.717Z,0
2018-05-04T02:17:06.774Z,0
2018-05-04T02:18:14.836Z,0
2018-05-04T02:19:22.881Z,0
2018-05-04T02:20:30.962Z,0
2018-05-04T02:21:39.030Z,0
2018-05-04T02:22:47.084Z,0
2018-05-04T02:23:55.164Z,0
2018-05-04T02:25:03.230Z,0
2018-05-04T02:26:11.277Z,0
2018-05-04T02:27:19.323Z,0
2018-05-04T02:28:27.400Z,0
2018-05-04T02:29:35.464Z,0
2018-05-04T02:30:43.524Z,0
2018-05-04T02:31:51.578Z,0
2018-05-04T02:32:59.649Z,0
2018-05-04T02:34:07.704Z,0
2018-05-04T02:35:15.765Z,0
2018-05-04T02:36:23.829Z,0
2018-05-04T02:37:31.899Z,0
2018-05-04T02:38:39.957Z,0
2018-05-04T02:39:48.016Z,0
2018-05-04T02:40:56.068Z,0
2018-05-04T02:42:16.675Z,0
2018-05-04T02:43:12.173Z,0
2018-05-04T02:44:20.259Z,0
2018-05-04T02:45:28.337Z,0
2018-05-04T02:46:36.385Z,0
2018-05-04T02:47:44.453Z,0
2018-05-04T02:48:52.481Z,0
2018-05-04T02:50:00.566Z,0
2018-05-04T02:51:08.632Z,0
2018-05-04T02:52:16.703Z,0
2018-05-04T02:53:24.769Z,0
2018-05-04T02:54:32.799Z,0
2018-05-04T02:55:40.878Z,0
2018-05-04T02:56:48.949Z,0
2018-05-04T02:57:56.993Z,0
2018-05-04T02:59:05.069Z,0
2018-05-04T03:00:13.128Z,0
2018-05-04T03:01:21.188Z,0
2018-05-04T03:02:29.255Z,0
2018-05-04T03:03:37.321Z,0
2018-05-04T03:04:45.375Z,0
2018-05-04T03:05:53.430Z,0
2018-05-04T03:07:01.505Z,0
2018-05-04T03:08:09.555Z,0
2018-05-04T03:09:17.627Z,0
2018-05-04T03:10:25.685Z,0
2018-05-04T03:11:33.740Z,0
2018-05-04T03:12:41.809Z,0
2018-05-04T03:13:49.866Z,0
2018-05-04T03:14:57.926Z,0
2018-05-04T03:16:05.988Z,0
2018-05-04T03:17:14.056Z,0
2018-05-04T03:18:22.101Z,0
2018-05-04T03:19:30.187Z,0
2018-05-04T03:20:38.239Z,0
2018-05-04T03:21:46.301Z,0
2018-05-04T03:22:54.354Z,0
2018-05-04T03:24:02.396Z,0
2018-05-04T03:25:10.489Z,0
2018-05-04T03:26:18.549Z,0
2018-05-04T03:27:26.605Z,0
2018-05-04T03:28:34.679Z,0
2018-05-04T03:29:42.703Z,0
2018-05-04T03:30:50.794Z,0
2018-05-04T03:31:58.860Z,0
2018-05-04T03:33:06.932Z,0
2018-05-04T03:34:14.979Z,0
2018-05-04T03:35:23.044Z,0
2018-05-04T03:36:31.098Z,0
2018-05-04T03:37:39.184Z,0
2018-05-04T03:38:47.223Z,0
2018-05-04T03:39:55.282Z,0
2018-05-04T03:41:03.344Z,0
2018-05-04T03:42:11.425Z,0
2018-05-04T03:43:19.463Z,0
2018-05-04T03:44:27.533Z,0
2018-05-04T03:45:35.604Z,0
2018-05-04T03:46:43.668Z,0
2018-05-04T03:47:51.716Z,0
2018-05-04T03:48:59.788Z,0
2018-05-04T03:50:07.836Z,0
2018-05-04T03:51:15.912Z,0
2018-05-04T03:52:23.969Z,0
2018-05-04T03:53:32.009Z,0
2018-05-04T03:54:40.094Z,0
2018-05-04T03:55:48.165Z,0
2018-05-04T03:56:56.209Z,0
2018-05-04T03:58:04.262Z,0
2018-05-04T03:59:12.698Z,0
2018-05-04T04:00:20.714Z,5
2018-05-04T04:01:28.465Z,5
2018-05-04T04:02:36.514Z,5
2018-05-04T04:03:44.580Z,5
2018-05-04T04:04:52.621Z,5
2018-05-04T04:06:00.705Z,10
2018-05-04T04:07:08.760Z,10
2018-05-04T04:08:16.824Z,10
2018-05-04T04:09:24.909Z,10
2018-05-04T04:10:32.954Z,10
2018-05-04T04:11:41.629Z,10
2018-05-04T04:12:49.083Z,10
2018-05-04T04:13:57.143Z,10
2018-05-04T04:15:05.189Z,10
2018-05-04T04:16:13.263Z,10
2018-05-04T04:17:21.325Z,10
2018-05-04T04:18:29.381Z,10
2018-05-04T04:19:37.455Z,10
2018-05-04T04:20:45.509Z,10
2018-05-04T04:21:53.558Z,15
2018-05-04T04:23:01.632Z,15
2018-05-04T04:24:09.854Z,15
2018-05-04T04:25:17.754Z,15
2018-05-04T04:26:25.810Z,15
2018-05-04T04:27:33.890Z,15
2018-05-04T04:28:41.930Z,15
2018-05-04T04:29:50.006Z,20
2018-05-04T04:30:58.064Z,25
2018-05-04T04:32:06.132Z,25
2018-05-04T04:33:14.170Z,30
2018-05-04T04:34:22.276Z,30
2018-05-04T04:35:30.554Z,30
2018-05-04T04:36:38.384Z,30
2018-05-04T04:37:46.494Z,35
2018-05-04T04:38:54.582Z,35
2018-05-04T04:40:02.535Z,40
2018-05-04T04:41:10.627Z,45
2018-05-04T04:42:18.670Z,50
2018-05-04T04:43:26.744Z,60
2018-05-04T04:44:34.809Z,70
2018-05-04T04:45:43.058Z,80
2018-05-04T04:46:50.911Z,80
2018-05-04T04:47:59.076Z,85
2018-05-04T04:49:07.043Z,85
2018-05-04T04:50:15.114Z,85
2018-05-04T04:51:23.174Z,85
2018-05-04T04:52:31.231Z,90
2018-05-04T04:53:39.298Z,95
2018-05-04T04:54:47.362Z,95
2018-05-04T04:55:55.425Z,95
2018-05-04T04:57:03.702Z,100
2018-05-04T04:58:11.543Z,110
2018-05-04T04:59:19.606Z,120
2018-05-04T05:00:27.689Z,120
2018-05-04T05:01:35.728Z,115
2018-05-04T05:02:43.802Z,110
2018-05-04T05:03:51.865Z,115
2018-05-04T05:04:59.932Z,115
2018-05-04T05:06:07.986Z,115
2018-05-04T05:07:16.045Z,105
2018-05-04T05:08:24.106Z,105
2018-05-04T05:09:32.142Z,100
2018-05-04T05:10:40.226Z,95
2018-05-04T05:11:48.301Z,85
2018-05-04T05:12:56.893Z,90
2018-05-04T05:14:04.423Z,90
2018-05-04T05:15:12.452Z,90
2018-05-04T05:16:20.779Z,95
2018-05-04T05:17:28.617Z,105
2018-05-04T05:18:37.028Z,110
2018-05-04T05:19:44.731Z,150
2018-05-04T05:20:52.766Z,190
2018-05-04T05:22:00.881Z,190
2018-05-04T05:23:08.919Z,190
2018-05-04T05:24:16.962Z,225
2018-05-04T05:25:25.036Z,205
2018-05-04T05:26:33.102Z,200
2018-05-04T05:27:41.169Z,200
2018-05-04T05:28:49.233Z,200
2018-05-04T05:29:57.292Z,205
2018-05-04T05:31:05.371Z,205
2018-05-04T05:32:13.415Z,210
2018-05-04T05:33:21.482Z,225
2018-05-04T05:34:29.557Z,225
2018-05-04T05:35:37.612Z,225
2018-05-04T05:36:45.678Z,225
2018-05-04T05:37:53.743Z,225
2018-05-04T05:39:01.798Z,230
2018-05-04T05:40:09.866Z,230
2018-05-04T05:41:17.917Z,230
2018-05-04T05:42:26.054Z,235
2018-05-04T05:43:34.061Z,245
2018-05-04T05:44:42.094Z,240
2018-05-04T05:45:50.173Z,240
2018-05-04T05:46:58.234Z,235
2018-05-04T05:48:06.303Z,240
2018-05-04T05:49:14.383Z,245
2018-05-04T05:50:22.401Z,245
2018-05-04T05:51:30.511Z,245
2018-05-04T05:52:38.560Z,245
2018-05-04T05:53:46.639Z,245
2018-05-04T05:54:54.685Z,245
2018-05-04T05:56:02.726Z,250
2018-05-04T05:57:10.807Z,250
2018-05-04T05:58:18.895Z,255
2018-05-04T05:59:26.947Z,255
2018-05-04T06:00:34.993Z,255
2018-05-04T06:01:43.056Z,260
2018-05-04T06:02:51.133Z,265
2018-05-04T06:03:59.270Z,275
2018-05-04T06:05:07.248Z,270
2018-05-04T06:06:15.325Z,265
2018-05-04T06:07:23.385Z,275
2018-05-04T06:08:31.436Z,275
2018-05-04T06:09:39.507Z,270
2018-05-04T06:10:47.561Z,275
2018-05-04T06:11:55.646Z,280
2018-05-04T06:13:03.709Z,290
2018-05-04T06:14:11.772Z,295
2018-05-04T06:15:19.829Z,295
2018-05-04T06:16:27.907Z,305
2018-05-04T06:17:35.963Z,305
2018-05-04T06:18:44.032Z,295
2018-05-04T06:19:52.069Z,290
2018-05-04T06:21:00.146Z,295
2018-05-04T06:22:08.210Z,295
2018-05-04T06:23:16.287Z,290
2018-05-04T06:24:24.343Z,290
2018-05-04T06:25:32.386Z,285
2018-05-04T06:26:40.476Z,285
2018-05-04T06:27:48.531Z,285
2018-05-04T06:28:56.595Z,285
2018-05-04T06:30:04.681Z,280
2018-05-04T06:31:12.702Z,280
2018-05-04T06:32:20.789Z,270
2018-05-04T06:33:28.863Z,275
2018-05-04T06:34:36.918Z,290
2018-05-04T06:35:44.983Z,300
2018-05-04T06:36:53.038Z,300
2018-05-04T06:38:01.109Z,300
2018-05-04T06:39:09.189Z,300
2018-05-04T06:40:17.247Z,295
2018-05-04T06:41:25.313Z,300
2018-05-04T06:42:33.373Z,305
2018-05-04T06:43:41.449Z,305
2018-05-04T06:44:49.505Z,305
2018-05-04T06:45:57.543Z,310
2018-05-04T06:47:05.645Z,315
2018-05-04T06:48:13.698Z,300
2018-05-04T06:49:21.754Z,330
2018-05-04T06:50:29.826Z,345
2018-05-04T06:51:37.891Z,335
2018-05-04T06:52:45.963Z,335
2018-05-04T06:53:54.006Z,335
2018-05-04T06:55:02.057Z,335
2018-05-04T06:56:10.148Z,340
2018-05-04T06:57:18.209Z,335
2018-05-04T06:58:26.268Z,335
2018-05-04T06:59:34.334Z,355
2018-05-04T07:00:42.373Z,365
2018-05-04T07:01:50.466Z,395
2018-05-04T07:02:58.535Z,390
2018-05-04T07:04:06.608Z,400
2018-05-04T07:05:14.666Z,435
2018-05-04T07:06:22.741Z,465
2018-05-04T07:07:30.790Z,460
2018-05-04T07:08:38.854Z,495
2018-05-04T07:09:46.917Z,580
2018-05-04T07:10:55.003Z,630
2018-05-04T07:12:03.036Z,585
2018-05-04T07:13:11.124Z,515
2018-05-04T07:14:19.190Z,500
2018-05-04T07:15:27.247Z,505
2018-05-04T07:16:35.314Z,505
2018-05-04T07:17:43.378Z,490
2018-05-04T07:18:51.446Z,520
2018-05-04T07:19:59.491Z,505
2018-05-04T07:21:07.580Z,530
2018-05-04T07:22:15.642Z,545
2018-05-04T07:23:23.695Z,550
2018-05-04T07:24:31.780Z,570
2018-05-04T07:25:39.837Z,465
2018-05-04T07:26:47.900Z,655
2018-05-04T07:27:55.968Z,530
2018-05-04T07:29:04.033Z,490
2018-05-04T07:30:12.087Z,565
2018-05-04T07:31:20.161Z,750
2018-05-04T07:32:28.240Z,930
2018-05-04T07:33:36.302Z,830
2018-05-04T07:34:44.367Z,550
2018-05-04T07:35:52.503Z,510
2018-05-04T07:37:00.494Z,550
2018-05-04T07:38:08.584Z,490
2018-05-04T07:39:16.641Z,535
2018-05-04T07:40:24.711Z,625
2018-05-04T07:41:32.751Z,660
2018-05-04T07:42:40.843Z,730
2018-05-04T07:43:48.907Z,635
2018-05-04T07:44:56.975Z,485
2018-05-04T07:46:05.046Z,715
2018-05-04T07:47:13.117Z,595
2018-05-04T07:48:21.172Z,755
2018-05-04T07:49:29.247Z,620
2018-05-04T07:50:37.320Z,755
2018-05-04T07:51:45.379Z,645
2018-05-04T07:52:53.454Z,570
2018-05-04T07:54:01.515Z,570
2018-05-04T07:55:09.628Z,410
2018-05-04T07:56:17.650Z,440
2018-05-04T07:57:25.725Z,415
2018-05-04T07:58:33.794Z,415
2018-05-04T07:59:41.846Z,440
2018-05-04T08:00:49.932Z,330
2018-05-04T08:01:57.986Z,330
2018-05-04T08:03:06.048Z,315
2018-05-04T08:04:14.136Z,275
2018-05-04T08:05:22.172Z,260
2018-05-04T08:06:30.258Z,275
2018-05-04T08:07:38.324Z,285
2018-05-04T08:08:46.395Z,340
2018-05-04T08:09:54.468Z,355
2018-05-04T08:11:02.511Z,395
2018-05-04T08:12:10.607Z,375
2018-05-04T08:13:18.653Z,355
2018-05-04T08:14:26.736Z,375
2018-05-04T08:15:34.809Z,395
2018-05-04T08:16:42.859Z,370
2018-05-04T08:17:50.950Z,370
2018-05-04T08:18:59.002Z,385
2018-05-04T08:20:07.069Z,350
2018-05-04T08:21:15.132Z,340
2018-05-04T08:22:23.210Z,275
2018-05-04T08:23:31.284Z,250
2018-05-04T08:24:39.328Z,255
2018-05-04T08:25:47.412Z,285
2018-05-04T08:26:55.466Z,225
2018-05-04T08:28:03.558Z,235
2018-05-04T08:29:11.598Z,245
2018-05-04T08:30:19.665Z,255
2018-05-04T08:31:27.729Z,255
2018-05-04T08:32:35.815Z,255
2018-05-04T08:33:43.869Z,270
2018-05-04T08:34:51.936Z,345
2018-05-04T08:35:59.996Z,405
2018-05-04T08:37:08.081Z,395
2018-05-04T08:38:16.128Z,315
2018-05-04T08:39:24.211Z,370
2018-05-04T08:40:32.256Z,555
2018-05-04T08:41:40.368Z,520
2018-05-04T08:42:48.404Z,590
2018-05-04T08:43:56.487Z,505
2018-05-04T08:45:04.533Z,635
2018-05-04T08:46:12.588Z,645
2018-05-04T08:47:20.670Z,400
2018-05-04T08:48:28.735Z,530
2018-05-04T08:49:36.824Z,1590
2018-05-04T08:50:44.891Z,1465
2018-05-04T08:51:52.935Z,915
2018-05-04T08:53:01.005Z,1005
2018-05-04T08:54:09.077Z,525
2018-05-04T08:55:17.142Z,585
2018-05-04T08:56:25.209Z,745
2018-05-04T08:57:33.261Z,650
2018-05-04T08:58:41.346Z,710
2018-05-04T08:59:49.422Z,645
2018-05-04T09:00:57.488Z,750
2018-05-04T09:02:05.546Z,570
2018-05-04T09:03:13.629Z,460
2018-05-04T09:04:21.682Z,450
2018-05-04T09:05:30.011Z,575
2018-05-04T09:06:37.840Z,575
2018-05-04T09:07:45.895Z,610
2018-05-04T09:08:53.973Z,535
2018-05-04T09:10:02.032Z,620
2018-05-04T09:11:10.132Z,650
2018-05-04T09:12:18.188Z,555
2018-05-04T09:13:26.265Z,615
2018-05-04T09:14:34.319Z,615
2018-05-04T09:15:42.363Z,690
2018-05-04T09:16:50.446Z,610
2018-05-04T09:17:58.554Z,515
2018-05-04T09:19:06.606Z,550
2018-05-04T09:20:14.669Z,495
2018-05-04T09:21:22.733Z,460
2018-05-04T09:22:30.827Z,585
2018-05-04T09:23:38.880Z,720
2018-05-04T09:24:46.955Z,465
2018-05-04T09:25:55.033Z,605
2018-05-04T09:27:03.110Z,590
2018-05-04T09:28:11.151Z,660
2018-05-04T09:29:19.235Z,735
2018-05-04T09:30:27.292Z,710
2018-05-04T09:31:35.386Z,665
2018-05-04T09:32:43.439Z,620
2018-05-04T09:33:51.515Z,545
2018-05-04T09:34:59.583Z,460
2018-05-04T09:36:07.660Z,445
2018-05-04T09:37:15.769Z,405
2018-05-04T09:38:23.793Z,330
2018-05-04T09:39:31.849Z,265
2018-05-04T09:40:39.924Z,250
2018-05-04T09:41:48.002Z,260
2018-05-04T09:42:56.073Z,310
2018-05-04T09:44:04.132Z,445
2018-05-04T09:45:12.178Z,605
2018-05-04T09:46:20.288Z,600
2018-05-04T09:47:28.340Z,625
2018-05-04T09:48:36.411Z,570
2018-05-04T09:49:44.489Z,555
2018-05-04T09:50:52.529Z,560
2018-05-04T09:52:00.611Z,710
2018-05-04T09:53:08.682Z,550
2018-05-04T09:54:16.764Z,545
2018-05-04T09:55:24.825Z,570
2018-05-04T09:56:32.873Z,555
2018-05-04T09:57:40.959Z,525
2018-05-04T09:58:49.030Z,685
2018-05-04T09:59:57.097Z,585
2018-05-04T10:01:05.168Z,735
2018-05-04T10:02:13.239Z,615
2018-05-04T10:03:21.319Z,655
2018-05-04T10:04:29.381Z,635
2018-05-04T10:05:37.456Z,635
2018-05-04T10:06:45.514Z,615
2018-05-04T10:07:53.576Z,585
2018-05-04T10:09:01.661Z,510
2018-05-04T10:10:09.715Z,420
2018-05-04T10:11:17.788Z,620
2018-05-04T10:12:25.854Z,640
2018-05-04T10:13:33.974Z,630
2018-05-04T10:14:41.988Z,460
2018-05-04T10:15:50.078Z,470
2018-05-04T10:16:58.145Z,475
2018-05-04T10:18:06.223Z,580
2018-05-04T10:19:14.265Z,575
2018-05-04T10:20:22.334Z,595
2018-05-04T10:21:30.419Z,645
2018-05-04T10:22:38.470Z,550
2018-05-04T10:23:46.558Z,460
2018-05-04T10:24:54.625Z,445
2018-05-04T10:26:02.676Z,440
2018-05-04T10:27:10.751Z,420
2018-05-04T10:28:18.835Z,445
2018-05-04T10:29:26.892Z,435
2018-05-04T10:30:35.007Z,515
2018-05-04T10:31:43.041Z,505
2018-05-04T10:32:51.097Z,445
2018-05-04T10:33:59.183Z,420
2018-05-04T10:35:07.249Z,460
2018-05-04T10:36:15.325Z,495
2018-05-04T10:37:23.380Z,430
2018-05-04T10:38:31.515Z,355
2018-05-04T10:39:39.528Z,440
2018-05-04T10:40:47.581Z,520
2018-05-04T10:41:55.652Z,630
2018-05-04T10:43:03.738Z,575
2018-05-04T10:44:11.795Z,520
2018-05-04T10:45:19.868Z,465
2018-05-04T10:46:27.941Z,480
2018-05-04T10:47:36.009Z,465
2018-05-04T10:48:44.081Z,425
2018-05-04T10:49:52.113Z,450
2018-05-04T10:51:00.196Z,455
2018-05-04T10:52:08.277Z,590
2018-05-04T10:53:16.344Z,605
2018-05-04T10:54:24.421Z,505
2018-05-04T10:55:32.450Z,525
2018-05-04T10:56:40.556Z,570
2018-05-04T10:57:48.635Z,580
2018-05-04T10:58:56.699Z,495
2018-05-04T11:00:04.764Z,460
2018-05-04T11:01:12.804Z,415
2018-05-04T11:02:20.900Z,515
2018-05-04T11:03:28.962Z,565
2018-05-04T11:04:37.033Z,450
2018-05-04T11:05:45.105Z,510
2018-05-04T11:06:53.177Z,565
2018-05-04T11:08:01.235Z,650
2018-05-04T11:09:09.301Z,615
2018-05-04T11:10:17.377Z,485
2018-05-04T11:11:25.463Z,465
2018-05-04T11:12:33.516Z,505
2018-05-04T11:13:41.589Z,605
2018-05-04T11:14:49.651Z,550
2018-05-04T11:15:57.725Z,440
2018-05-04T11:17:05.804Z,485
2018-05-04T11:18:13.863Z,405
2018-05-04T11:19:21.933Z,435
2018-05-04T11:20:29.999Z,440
2018-05-04T11:21:38.065Z,520
2018-05-04T11:22:46.150Z,535
2018-05-04T11:23:54.207Z,445
2018-05-04T11:25:02.257Z,440
2018-05-04T11:26:10.346Z,435
2018-05-04T11:27:18.411Z,380
2018-05-04T11:28:26.481Z,335
2018-05-04T11:29:34.561Z,300
2018-05-04T11:30:42.602Z,300
2018-05-04T11:31:50.687Z,290
2018-05-04T11:32:58.769Z,360
2018-05-04T11:34:06.849Z,375
2018-05-04T11:35:14.900Z,400
2018-05-04T11:36:22.961Z,365
2018-05-04T11:37:31.040Z,375
2018-05-04T11:38:39.118Z,520
2018-05-04T11:39:47.180Z,520
2018-05-04T11:40:55.260Z,340
2018-05-04T11:42:03.312Z,355
2018-05-04T11:43:11.388Z,400
2018-05-04T11:44:19.442Z,405
2018-05-04T11:45:27.528Z,305
2018-05-04T11:46:35.601Z,365
2018-05-04T11:47:43.661Z,330
2018-05-04T11:48:51.740Z,405
2018-05-04T11:49:59.810Z,340
2018-05-04T11:51:07.862Z,465
2018-05-04T11:52:15.947Z,550
2018-05-04T11:53:24.004Z,520
2018-05-04T11:54:32.118Z,485
2018-05-04T11:55:40.142Z,475
2018-05-04T11:56:48.226Z,395
2018-05-04T11:57:56.279Z,390
2018-05-04T11:59:04.351Z,500
2018-05-04T12:00:12.395Z,555
2018-05-04T12:01:20.496Z,570
2018-05-04T12:02:28.621Z,510
2018-05-04T12:03:36.628Z,425
2018-05-04T12:04:44.691Z,515
2018-05-04T12:05:52.748Z,580
2018-05-04T12:07:00.841Z,550
2018-05-04T12:08:08.903Z,545
2018-05-04T12:09:16.974Z,560
2018-05-04T12:10:25.045Z,565
2018-05-04T12:11:33.097Z,595
2018-05-04T12:12:41.179Z,550
2018-05-04T12:13:49.247Z,445
2018-05-04T12:14:57.316Z,440
2018-05-04T12:16:05.385Z,460
2018-05-04T12:17:13.464Z,395
2018-05-04T12:18:21.533Z,415
2018-05-04T12:19:29.602Z,440
2018-05-04T12:20:37.697Z,470
2018-05-04T12:21:45.734Z,505
2018-05-04T12:22:53.845Z,525
2018-05-04T12:24:01.909Z,475
2018-05-04T12:25:09.929Z,520
2018-05-04T12:26:18.014Z,470
2018-05-04T12:27:26.088Z,545
2018-05-04T12:28:34.156Z,560
2018-05-04T12:29:42.202Z,525
2018-05-04T12:30:50.288Z,550
2018-05-04T12:31:58.399Z,555
2018-05-04T12:33:06.414Z,505
2018-05-04T12:34:14.498Z,520
2018-05-04T12:35:22.544Z,480
2018-05-04T12:36:30.624Z,475
2018-05-04T12:37:38.698Z,460
2018-05-04T12:38:46.764Z,415
2018-05-04T12:39:54.834Z,390
2018-05-04T12:41:02.891Z,330
2018-05-04T12:42:10.985Z,290
2018-05-04T12:43:19.049Z,335
2018-05-04T12:44:27.141Z,350
2018-05-04T12:45:35.189Z,470
2018-05-04T12:46:43.256Z,490
2018-05-04T12:47:51.326Z,465
2018-05-04T12:48:59.386Z,490
2018-05-04T12:50:07.465Z,515
2018-05-04T12:51:15.543Z,505
2018-05-04T12:52:23.615Z,535
2018-05-04T12:53:31.759Z,555
2018-05-04T12:54:40.161Z,555
2018-05-04T12:55:47.829Z,500
2018-05-04T12:56:55.873Z,545
2018-05-04T12:58:03.934Z,530
2018-05-04T12:59:12.045Z,525
2018-05-04T13:00:20.089Z,530
2018-05-04T13:01:28.160Z,490
2018-05-04T13:02:36.231Z,485
2018-05-04T13:03:44.284Z,475
2018-05-04T13:04:52.343Z,480
2018-05-04T13:06:00.436Z,540
2018-05-04T13:07:08.532Z,460
2018-05-04T13:08:16.563Z,480
2018-05-04T13:09:24.635Z,500
2018-05-04T13:10:32.678Z,480
2018-05-04T13:11:40.777Z,470
2018-05-04T13:12:48.842Z,485
2018-05-04T13:13:56.932Z,400
2018-05-04T13:15:04.998Z,405
2018-05-04T13:16:13.054Z,430
2018-05-04T13:17:21.130Z,340
2018-05-04T13:18:29.193Z,365
2018-05-04T13:19:37.264Z,355
2018-05-04T13:20:45.333Z,375
2018-05-04T13:21:53.399Z,345
2018-05-04T13:23:01.469Z,340
2018-05-04T13:24:09.533Z,325
2018-05-04T13:25:17.626Z,290
2018-05-04T13:26:25.680Z,325
2018-05-04T13:27:33.750Z,375
2018-05-04T13:28:41.819Z,265
2018-05-04T13:29:49.877Z,300
2018-05-04T13:30:57.944Z,395
2018-05-04T13:32:06.038Z,430
2018-05-04T13:33:14.089Z,405
2018-05-04T13:34:22.138Z,480
2018-05-04T13:35:30.230Z,405
2018-05-04T13:36:38.321Z,410
2018-05-04T13:37:46.378Z,465
2018-05-04T13:38:54.449Z,415
2018-05-04T13:40:02.481Z,420
2018-05-04T13:41:10.575Z,425
2018-05-04T13:42:18.640Z,410
2018-05-04T13:43:26.716Z,400
2018-05-04T13:44:34.873Z,370
2018-05-04T13:45:42.838Z,355
2018-05-04T13:46:50.921Z,380
2018-05-04T13:47:58.984Z,440
2018-05-04T13:49:07.053Z,390
2018-05-04T13:50:15.139Z,360
2018-05-04T13:51:23.295Z,425
2018-05-04T13:52:31.267Z,365
2018-05-04T13:53:39.339Z,370
2018-05-04T13:54:47.418Z,430
2018-05-04T13:55:55.479Z,420
2018-05-04T13:57:03.538Z,390
2018-05-04T13:58:11.639Z,410
2018-05-04T13:59:19.690Z,420
2018-05-04T14:00:27.759Z,390
2018-05-04T14:01:35.811Z,345
2018-05-04T14:02:43.879Z,355
2018-05-04T14:03:51.946Z,385
2018-05-04T14:05:00.025Z,320
2018-05-04T14:06:08.082Z,340
2018-05-04T14:07:16.167Z,405
2018-05-04T14:08:24.243Z,370
2018-05-04T14:09:32.349Z,320
2018-05-04T14:10:40.366Z,400
2018-05-04T14:11:48.426Z,405
2018-05-04T14:12:56.496Z,380
2018-05-04T14:14:04.572Z,435
2018-05-04T14:15:12.605Z,405
2018-05-04T14:16:20.700Z,395
2018-05-04T14:17:28.791Z,360
2018-05-04T14:18:36.844Z,295
2018-05-04T14:19:44.922Z,395
2018-05-04T14:20:52.976Z,390
2018-05-04T14:22:01.039Z,370
2018-05-04T14:23:09.126Z,360
2018-05-04T14:24:17.189Z,345
2018-05-04T14:25:25.257Z,245
2018-05-04T14:26:33.335Z,270
2018-05-04T14:27:41.400Z,275
2018-05-04T14:28:49.470Z,310
2018-05-04T14:29:57.531Z,335
2018-05-04T14:31:05.617Z,310
2018-05-04T14:32:13.688Z,285
2018-05-04T14:33:21.729Z,320
2018-05-04T14:34:29.812Z,315
2018-05-04T14:35:37.865Z,295
2018-05-04T14:36:45.952Z,305
2018-05-04T14:37:54.006Z,345
2018-05-04T14:39:02.078Z,345
2018-05-04T14:40:10.153Z,350
2018-05-04T14:41:18.230Z,365
2018-05-04T14:42:26.453Z,375
2018-05-04T14:43:34.360Z,355
2018-05-04T14:44:42.402Z,295
2018-05-04T14:45:50.495Z,330
2018-05-04T14:46:58.563Z,360
2018-05-04T14:48:06.624Z,330
2018-05-04T14:49:14.729Z,280
2018-05-04T14:50:22.740Z,355
2018-05-04T14:51:30.857Z,360
2018-05-04T14:52:38.912Z,350
2018-05-04T14:53:46.992Z,340
2018-05-04T14:54:55.047Z,265
2018-05-04T14:56:03.114Z,240
2018-05-04T14:57:11.184Z,285
2018-05-04T14:58:19.258Z,290
2018-05-04T14:59:27.316Z,315
2018-05-04T15:00:35.396Z,300
2018-05-04T15:01:43.465Z,310
2018-05-04T15:02:51.546Z,300
2018-05-04T15:03:59.598Z,300
2018-05-04T15:05:07.665Z,295
2018-05-04T15:06:15.727Z,305
2018-05-04T15:07:23.803Z,315
2018-05-04T15:08:31.858Z,335
2018-05-04T15:09:39.937Z,290
2018-05-04T15:10:48.011Z,290
2018-05-04T15:11:56.156Z,285
2018-05-04T15:13:04.141Z,295
2018-05-04T15:14:12.187Z,300
2018-05-04T15:15:20.275Z,260
2018-05-04T15:16:28.380Z,225
2018-05-04T15:17:36.404Z,240
2018-05-04T15:18:44.488Z,240
2018-05-04T15:19:52.523Z,245
2018-05-04T15:21:00.664Z,195
2018-05-04T15:22:08.681Z,205
2018-05-04T15:23:16.751Z,210
2018-05-04T15:24:24.832Z,235
2018-05-04T15:25:32.873Z,210
2018-05-04T15:26:40.957Z,220
2018-05-04T15:27:49.026Z,265
2018-05-04T15:28:57.107Z,255
2018-05-04T15:30:05.170Z,245
2018-05-04T15:31:13.236Z,250
2018-05-04T15:32:21.301Z,230
2018-05-04T15:33:29.364Z,225
2018-05-04T15:34:37.448Z,205
2018-05-04T15:35:45.501Z,195
2018-05-04T15:36:53.575Z,175
2018-05-04T15:38:01.621Z,175
2018-05-04T15:39:09.711Z,175
2018-05-04T15:40:17.766Z,155
2018-05-04T15:41:25.835Z,150
2018-05-04T15:42:33.907Z,160
2018-05-04T15:43:41.974Z,170
2018-05-04T15:44:50.049Z,145
2018-05-04T15:45:58.156Z,155
2018-05-04T15:47:06.178Z,165
2018-05-04T15:48:14.255Z,165
2018-05-04T15:49:22.275Z,150
2018-05-04T15:50:30.380Z,170
2018-05-04T15:51:38.454Z,180
2018-05-04T15:52:46.533Z,160
2018-05-04T15:53:54.584Z,150
2018-05-04T15:55:02.739Z,170
2018-05-04T15:56:10.708Z,160